sensor_id;sensor_type;location;lat;lon;timestamp;P1;durP1;ratioP1;P2;durP2;ratioP2
11655;SDS011;5884;43.618;1.438;2023-04-03T04:45:46;9.27;;;4.67;;
11655;SDS011;5884;43.618;1.438;2023-04-03T04:48:13;7.77;;;4.60;;
11655;SDS011;5884;43.618;1.438;2023-04-03T04:50:41;7.40;;;4.37;;
11655;SDS011;5884;43.618;1.438;2023-04-03T04:53:08;7.37;;;5.30;;
11655;SDS011;5884;43.618;1.438;2023-04-03T04:55:35;7.87;;;5.27;;
11655;SDS011;5884;43.618;1.438;2023-04-03T04:58:02;6.10;;;4.70;;
11655;SDS011;5884;43.618;1.438;2023-04-03T05:00:30;10.23;;;5.53;;
11655;SDS011;5884;43.618;1.438;2023-04-03T05:02:58;8.07;;;5.03;;
11655;SDS011;5884;43.618;1.438;2023-04-03T05:05:26;5.83;;;5.00;;
11655;SDS011;5884;43.618;1.438;2023-04-03T05:07:53;8.60;;;5.10;;
11655;SDS011;5884;43.618;1.438;2023-04-03T05:10:20;7.33;;;4.63;;
11655;SDS011;5884;43.618;1.438;2023-04-03T05:12:47;5.93;;;4.83;;
11655;SDS011;5884;43.618;1.438;2023-04-03T05:15:15;9.13;;;5.40;;
11655;SDS011;5884;43.618;1.438;2023-04-03T05:17:42;6.13;;;5.30;;
11655;SDS011;5884;43.618;1.438;2023-04-03T05:20:11;6.40;;;5.67;;
11655;SDS011;5884;43.618;1.438;2023-04-03T05:22:39;6.00;;;5.30;;
11655;SDS011;5884;43.618;1.438;2023-04-03T05:25:06;8.07;;;5.50;;
11655;SDS011;5884;43.618;1.438;2023-04-03T05:27:34;7.57;;;5.67;;
11655;SDS011;5884;43.618;1.438;2023-04-03T05:30:02;7.07;;;5.23;;
11655;SDS011;5884;43.618;1.438;2023-04-03T05:32:30;8.40;;;5.37;;
11655;SDS011;5884;43.618;1.438;2023-04-03T05:34:58;6.77;;;5.40;;
11655;SDS011;5884;43.618;1.438;2023-04-03T05:37:27;7.57;;;4.83;;
11655;SDS011;5884;43.618;1.438;2023-04-03T05:39:54;9.70;;;5.60;;
11655;SDS011;5884;43.618;1.438;2023-04-03T05:42:22;6.60;;;5.03;;
11655;SDS011;5884;43.618;1.438;2023-04-03T05:44:49;7.40;;;5.43;;
11655;SDS011;5884;43.618;1.438;2023-04-03T05:47:16;8.30;;;5.50;;
11655;SDS011;5884;43.618;1.438;2023-04-03T05:49:44;7.67;;;6.20;;
11655;SDS011;5884;43.618;1.438;2023-04-03T05:52:16;5.97;;;5.30;;
11655;SDS011;5884;43.618;1.438;2023-04-03T05:54:51;7.43;;;5.80;;
11655;SDS011;5884;43.618;1.438;2023-04-03T05:57:18;7.87;;;5.63;;
11655;SDS011;5884;43.618;1.438;2023-04-03T05:59:46;8.53;;;5.63;;
11655;SDS011;5884;43.618;1.438;2023-04-03T06:02:14;6.10;;;5.03;;
11655;SDS011;5884;43.618;1.438;2023-04-03T06:04:44;7.30;;;5.00;;
11655;SDS011;5884;43.618;1.438;2023-04-03T06:07:13;6.83;;;4.97;;
11655;SDS011;5884;43.618;1.438;2023-04-03T06:09:42;9.37;;;5.97;;
11655;SDS011;5884;43.618;1.438;2023-04-03T06:12:12;6.73;;;5.47;;
11655;SDS011;5884;43.618;1.438;2023-04-03T06:14:40;7.97;;;5.43;;
11655;SDS011;5884;43.618;1.438;2023-04-03T06:17:07;8.37;;;5.73;;
11655;SDS011;5884;43.618;1.438;2023-04-03T06:19:35;8.00;;;5.50;;
11655;SDS011;5884;43.618;1.438;2023-04-03T06:22:02;5.93;;;4.80;;
11655;SDS011;5884;43.618;1.438;2023-04-03T06:24:30;8.17;;;4.80;;
11655;SDS011;5884;43.618;1.438;2023-04-03T06:26:58;8.20;;;5.30;;
11655;SDS011;5884;43.618;1.438;2023-04-03T06:29:26;11.40;;;5.43;;
11655;SDS011;5884;43.618;1.438;2023-04-03T06:31:54;4.77;;;4.27;;
11655;SDS011;5884;43.618;1.438;2023-04-03T06:34:21;7.27;;;5.13;;
11655;SDS011;5884;43.618;1.438;2023-04-03T06:36:48;7.10;;;5.07;;
11655;SDS011;5884;43.618;1.438;2023-04-03T06:39:17;9.17;;;5.33;;
11655;SDS011;5884;43.618;1.438;2023-04-03T06:41:47;6.40;;;4.83;;
11655;SDS011;5884;43.618;1.438;2023-04-03T06:44:15;7.77;;;5.10;;
11655;SDS011;5884;43.618;1.438;2023-04-03T06:46:44;6.50;;;4.70;;
11655;SDS011;5884;43.618;1.438;2023-04-03T06:49:11;6.90;;;5.13;;
11655;SDS011;5884;43.618;1.438;2023-04-03T06:51:40;9.43;;;5.17;;
11655;SDS011;5884;43.618;1.438;2023-04-03T06:54:07;7.87;;;5.07;;
11655;SDS011;5884;43.618;1.438;2023-04-03T06:56:34;7.40;;;5.23;;
11655;SDS011;5884;43.618;1.438;2023-04-03T06:59:02;8.80;;;4.87;;
11655;SDS011;5884;43.618;1.438;2023-04-03T07:01:29;8.10;;;4.83;;
11655;SDS011;5884;43.618;1.438;2023-04-03T07:03:58;7.83;;;6.00;;
11655;SDS011;5884;43.618;1.438;2023-04-03T07:06:25;6.00;;;4.90;;
11655;SDS011;5884;43.618;1.438;2023-04-03T07:08:53;6.53;;;4.80;;
11655;SDS011;5884;43.618;1.438;2023-04-03T07:11:21;8.67;;;5.00;;
11655;SDS011;5884;43.618;1.438;2023-04-03T07:13:48;8.33;;;5.20;;
11655;SDS011;5884;43.618;1.438;2023-04-03T07:16:16;7.03;;;4.90;;
11655;SDS011;5884;43.618;1.438;2023-04-03T07:18:44;10.43;;;5.17;;
11655;SDS011;5884;43.618;1.438;2023-04-03T07:21:13;6.83;;;5.10;;
11655;SDS011;5884;43.618;1.438;2023-04-03T07:23:40;8.50;;;4.97;;
11655;SDS011;5884;43.618;1.438;2023-04-03T07:26:08;5.70;;;5.07;;
11655;SDS011;5884;43.618;1.438;2023-04-03T07:28:35;10.10;;;5.40;;
11655;SDS011;5884;43.618;1.438;2023-04-03T07:31:06;5.77;;;5.07;;
11655;SDS011;5884;43.618;1.438;2023-04-03T07:33:38;8.70;;;4.77;;
11655;SDS011;5884;43.618;1.438;2023-04-03T07:36:06;7.00;;;4.87;;
11655;SDS011;5884;43.618;1.438;2023-04-03T07:38:37;7.70;;;4.70;;
11655;SDS011;5884;43.618;1.438;2023-04-03T07:41:04;6.73;;;4.90;;
11655;SDS011;5884;43.618;1.438;2023-04-03T07:43:32;7.60;;;4.67;;
11655;SDS011;5884;43.618;1.438;2023-04-03T07:45:59;6.00;;;4.50;;
11655;SDS011;5884;43.618;1.438;2023-04-03T07:48:27;7.93;;;5.03;;
11655;SDS011;5884;43.618;1.438;2023-04-03T07:50:58;7.67;;;5.07;;
11655;SDS011;5884;43.618;1.438;2023-04-03T07:53:26;7.03;;;4.37;;
11655;SDS011;5884;43.618;1.438;2023-04-03T07:55:56;6.70;;;4.80;;
11655;SDS011;5884;43.618;1.438;2023-04-03T07:58:24;7.13;;;5.03;;
11655;SDS011;5884;43.618;1.438;2023-04-03T08:00:52;6.43;;;5.23;;
11655;SDS011;5884;43.618;1.438;2023-04-03T08:03:19;7.70;;;4.67;;
11655;SDS011;5884;43.618;1.438;2023-04-03T08:05:48;7.40;;;4.30;;
11655;SDS011;5884;43.618;1.438;2023-04-03T08:08:17;6.27;;;4.30;;
11655;SDS011;5884;43.618;1.438;2023-04-03T08:10:47;5.97;;;4.23;;
11655;SDS011;5884;43.618;1.438;2023-04-03T08:13:17;7.90;;;4.17;;
11655;SDS011;5884;43.618;1.438;2023-04-03T08:15:45;5.03;;;3.87;;
11655;SDS011;5884;43.618;1.438;2023-04-03T08:18:12;7.37;;;4.13;;
11655;SDS011;5884;43.618;1.438;2023-04-03T08:20:40;6.93;;;4.40;;
11655;SDS011;5884;43.618;1.438;2023-04-03T08:23:08;7.67;;;4.27;;
11655;SDS011;5884;43.618;1.438;2023-04-03T08:25:37;6.77;;;4.47;;
11655;SDS011;5884;43.618;1.438;2023-04-03T08:28:05;5.70;;;4.20;;
11655;SDS011;5884;43.618;1.438;2023-04-03T08:30:33;7.13;;;4.20;;
11655;SDS011;5884;43.618;1.438;2023-04-03T08:33:01;7.43;;;4.23;;
11655;SDS011;5884;43.618;1.438;2023-04-03T08:35:29;6.73;;;4.37;;
11655;SDS011;5884;43.618;1.438;2023-04-03T08:37:56;6.80;;;3.70;;
11655;SDS011;5884;43.618;1.438;2023-04-03T08:40:23;6.40;;;3.80;;
11655;SDS011;5884;43.618;1.438;2023-04-03T08:42:54;6.30;;;3.90;;
11655;SDS011;5884;43.618;1.438;2023-04-03T08:45:37;6.23;;;4.13;;
11655;SDS011;5884;43.618;1.438;2023-04-03T08:48:13;5.17;;;4.10;;
11655;SDS011;5884;43.618;1.438;2023-04-03T08:50:47;6.43;;;3.90;;
11655;SDS011;5884;43.618;1.438;2023-04-03T08:53:19;7.10;;;4.00;;
11655;SDS011;5884;43.618;1.438;2023-04-03T08:55:52;8.13;;;3.87;;
11655;SDS011;5884;43.618;1.438;2023-04-03T08:58:21;5.83;;;3.40;;
11655;SDS011;5884;43.618;1.438;2023-04-03T09:00:54;5.73;;;3.70;;
11655;SDS011;5884;43.618;1.438;2023-04-03T09:03:28;8.30;;;3.60;;
11655;SDS011;5884;43.618;1.438;2023-04-03T09:05:57;4.70;;;2.87;;
11655;SDS011;5884;43.618;1.438;2023-04-03T09:08:30;7.33;;;3.20;;
11655;SDS011;5884;43.618;1.438;2023-04-03T09:11:05;6.10;;;3.27;;
11655;SDS011;5884;43.618;1.438;2023-04-03T09:13:41;6.07;;;3.57;;
11655;SDS011;5884;43.618;1.438;2023-04-03T09:16:27;8.37;;;3.27;;
11655;SDS011;5884;43.618;1.438;2023-04-03T09:19:06;3.77;;;3.00;;
11655;SDS011;5884;43.618;1.438;2023-04-03T09:21:44;7.47;;;3.13;;
11655;SDS011;5884;43.618;1.438;2023-04-03T09:24:12;5.63;;;3.07;;
11655;SDS011;5884;43.618;1.438;2023-04-03T09:26:43;7.80;;;3.20;;
11655;SDS011;5884;43.618;1.438;2023-04-03T09:29:17;4.97;;;2.80;;
11655;SDS011;5884;43.618;1.438;2023-04-03T09:31:49;3.90;;;2.60;;
11655;SDS011;5884;43.618;1.438;2023-04-03T09:34:20;6.13;;;3.07;;
11655;SDS011;5884;43.618;1.438;2023-04-03T09:36:51;4.10;;;2.50;;
11655;SDS011;5884;43.618;1.438;2023-04-03T09:39:22;4.53;;;2.43;;
11655;SDS011;5884;43.618;1.438;2023-04-03T09:42:00;4.00;;;2.90;;
11655;SDS011;5884;43.618;1.438;2023-04-03T09:44:30;5.97;;;3.20;;
11655;SDS011;5884;43.618;1.438;2023-04-03T09:47:02;6.10;;;3.07;;
11655;SDS011;5884;43.618;1.438;2023-04-03T09:49:46;6.13;;;2.93;;
11655;SDS011;5884;43.618;1.438;2023-04-03T09:52:19;6.27;;;2.83;;
11655;SDS011;5884;43.618;1.438;2023-04-03T09:54:50;4.10;;;3.03;;
11655;SDS011;5884;43.618;1.438;2023-04-03T09:57:17;5.57;;;2.97;;
11655;SDS011;5884;43.618;1.438;2023-04-03T09:59:46;7.03;;;3.00;;
11655;SDS011;5884;43.618;1.438;2023-04-03T10:02:33;5.43;;;3.47;;
11655;SDS011;5884;43.618;1.438;2023-04-03T10:05:04;6.33;;;3.27;;
11655;SDS011;5884;43.618;1.438;2023-04-03T10:07:52;6.33;;;2.90;;
11655;SDS011;5884;43.618;1.438;2023-04-03T10:10:36;5.90;;;2.50;;
11655;SDS011;5884;43.618;1.438;2023-04-03T10:13:05;4.10;;;2.77;;
11655;SDS011;5884;43.618;1.438;2023-04-03T10:15:35;4.43;;;2.77;;
11655;SDS011;5884;43.618;1.438;2023-04-03T10:18:16;7.07;;;3.10;;
11655;SDS011;5884;43.618;1.438;2023-04-03T10:20:59;5.47;;;2.63;;
11655;SDS011;5884;43.618;1.438;2023-04-03T10:23:33;6.97;;;2.50;;
11655;SDS011;5884;43.618;1.438;2023-04-03T10:26:09;4.27;;;2.73;;
11655;SDS011;5884;43.618;1.438;2023-04-03T10:28:51;5.77;;;2.50;;
11655;SDS011;5884;43.618;1.438;2023-04-03T10:31:25;4.33;;;2.60;;
11655;SDS011;5884;43.618;1.438;2023-04-03T10:34:04;4.47;;;2.10;;
11655;SDS011;5884;43.618;1.438;2023-04-03T10:36:37;4.67;;;2.37;;
11655;SDS011;5884;43.618;1.438;2023-04-03T10:39:15;8.23;;;2.50;;
11655;SDS011;5884;43.618;1.438;2023-04-03T10:41:59;5.03;;;2.33;;
11655;SDS011;5884;43.618;1.438;2023-04-03T10:44:36;4.40;;;2.90;;
11655;SDS011;5884;43.618;1.438;2023-04-03T10:47:16;5.17;;;2.23;;
11655;SDS011;5884;43.618;1.438;2023-04-03T10:49:51;3.93;;;2.00;;
11655;SDS011;5884;43.618;1.438;2023-04-03T10:52:28;4.10;;;2.40;;
11655;SDS011;5884;43.618;1.438;2023-04-03T10:55:04;4.33;;;2.27;;
11655;SDS011;5884;43.618;1.438;2023-04-03T10:57:44;5.67;;;2.13;;
11655;SDS011;5884;43.618;1.438;2023-04-03T11:00:15;4.97;;;2.17;;
11655;SDS011;5884;43.618;1.438;2023-04-03T11:02:48;4.23;;;2.47;;
11655;SDS011;5884;43.618;1.438;2023-04-03T11:05:25;3.07;;;1.67;;
11655;SDS011;5884;43.618;1.438;2023-04-03T11:07:59;3.17;;;1.60;;
11655;SDS011;5884;43.618;1.438;2023-04-03T11:10:35;3.77;;;1.70;;
11655;SDS011;5884;43.618;1.438;2023-04-03T11:13:08;5.77;;;2.77;;
11655;SDS011;5884;43.618;1.438;2023-04-03T11:15:40;3.80;;;2.53;;
11655;SDS011;5884;43.618;1.438;2023-04-03T11:18:10;4.53;;;2.40;;
11655;SDS011;5884;43.618;1.438;2023-04-03T11:20:43;4.67;;;2.07;;
11655;SDS011;5884;43.618;1.438;2023-04-03T11:23:18;2.53;;;1.40;;
11655;SDS011;5884;43.618;1.438;2023-04-03T11:25:53;2.83;;;1.30;;
11655;SDS011;5884;43.618;1.438;2023-04-03T11:28:28;2.70;;;1.23;;
11655;SDS011;5884;43.618;1.438;2023-04-03T11:30:57;3.83;;;1.43;;
11655;SDS011;5884;43.618;1.438;2023-04-03T11:33:40;6.27;;;2.13;;
11655;SDS011;5884;43.618;1.438;2023-04-03T11:36:19;4.27;;;2.20;;
11655;SDS011;5884;43.618;1.438;2023-04-03T11:38:51;3.50;;;1.70;;
11655;SDS011;5884;43.618;1.438;2023-04-03T11:41:25;4.50;;;2.13;;
11655;SDS011;5884;43.618;1.438;2023-04-03T11:43:55;2.83;;;1.67;;
11655;SDS011;5884;43.618;1.438;2023-04-03T11:55:54;5.80;;;2.30;;
11655;SDS011;5884;43.618;1.438;2023-04-03T11:58:25;4.53;;;1.90;;
11655;SDS011;5884;43.618;1.438;2023-04-03T12:00:58;3.87;;;2.20;;
11655;SDS011;5884;43.618;1.438;2023-04-03T12:12:56;4.97;;;1.80;;
11655;SDS011;5884;43.618;1.438;2023-04-03T12:18:31;4.43;;;1.83;;
11655;SDS011;5884;43.618;1.438;2023-04-03T12:24:35;4.77;;;2.60;;
11655;SDS011;5884;43.618;1.438;2023-04-03T12:30:05;4.47;;;1.70;;
11655;SDS011;5884;43.618;1.438;2023-04-03T12:32:54;1.93;;;1.53;;
11655;SDS011;5884;43.618;1.438;2023-04-03T12:35:49;4.00;;;1.77;;
11655;SDS011;5884;43.618;1.438;2023-04-03T12:38:33;4.83;;;2.47;;
11655;SDS011;5884;43.618;1.438;2023-04-03T12:41:36;3.63;;;1.57;;
11655;SDS011;5884;43.618;1.438;2023-04-03T12:47:22;3.73;;;2.20;;
11655;SDS011;5884;43.618;1.438;2023-04-03T12:49:53;5.43;;;2.20;;
11655;SDS011;5884;43.618;1.438;2023-04-03T12:52:25;5.00;;;2.83;;
11655;SDS011;5884;43.618;1.438;2023-04-03T12:55:04;6.00;;;2.33;;
11655;SDS011;5884;43.618;1.438;2023-04-03T12:57:41;5.70;;;2.10;;
11655;SDS011;5884;43.618;1.438;2023-04-03T13:00:25;4.37;;;1.83;;
11655;SDS011;5884;43.618;1.438;2023-04-03T13:02:59;2.73;;;1.50;;
11655;SDS011;5884;43.618;1.438;2023-04-03T13:05:28;4.13;;;1.47;;
11655;SDS011;5884;43.618;1.438;2023-04-03T13:07:58;3.17;;;1.83;;
11655;SDS011;5884;43.618;1.438;2023-04-03T13:10:28;4.93;;;1.80;;
11655;SDS011;5884;43.618;1.438;2023-04-03T13:12:57;3.17;;;1.50;;
11655;SDS011;5884;43.618;1.438;2023-04-03T13:15:41;4.97;;;2.03;;
11655;SDS011;5884;43.618;1.438;2023-04-03T13:18:27;4.17;;;1.80;;
11655;SDS011;5884;43.618;1.438;2023-04-03T13:20:59;4.57;;;2.00;;
11655;SDS011;5884;43.618;1.438;2023-04-03T13:23:30;2.50;;;1.50;;
11655;SDS011;5884;43.618;1.438;2023-04-03T13:26:02;3.67;;;1.83;;
11655;SDS011;5884;43.618;1.438;2023-04-03T13:28:31;3.40;;;1.90;;
11655;SDS011;5884;43.618;1.438;2023-04-03T13:31:03;2.90;;;1.70;;
11655;SDS011;5884;43.618;1.438;2023-04-03T13:33:35;4.97;;;1.80;;
11655;SDS011;5884;43.618;1.438;2023-04-03T13:36:05;4.40;;;2.20;;
11655;SDS011;5884;43.618;1.438;2023-04-03T13:38:34;3.77;;;1.77;;
11655;SDS011;5884;43.618;1.438;2023-04-03T13:41:03;3.17;;;1.60;;
11655;SDS011;5884;43.618;1.438;2023-04-03T13:43:50;4.47;;;1.97;;
11655;SDS011;5884;43.618;1.438;2023-04-03T13:46:23;4.47;;;1.50;;
11655;SDS011;5884;43.618;1.438;2023-04-03T13:48:54;4.73;;;1.90;;
11655;SDS011;5884;43.618;1.438;2023-04-03T13:51:23;6.70;;;1.97;;
11655;SDS011;5884;43.618;1.438;2023-04-03T13:53:54;5.83;;;2.10;;
11655;SDS011;5884;43.618;1.438;2023-04-03T13:56:25;4.73;;;2.73;;
11655;SDS011;5884;43.618;1.438;2023-04-03T13:58:59;5.43;;;2.63;;
11655;SDS011;5884;43.618;1.438;2023-04-03T14:01:37;4.03;;;2.80;;
11655;SDS011;5884;43.618;1.438;2023-04-03T14:04:16;3.90;;;2.07;;
11655;SDS011;5884;43.618;1.438;2023-04-03T14:06:46;7.60;;;2.40;;
11655;SDS011;5884;43.618;1.438;2023-04-03T14:09:15;3.93;;;2.57;;
11655;SDS011;5884;43.618;1.438;2023-04-03T14:11:46;6.63;;;2.13;;
11655;SDS011;5884;43.618;1.438;2023-04-03T14:14:16;5.53;;;2.03;;
11655;SDS011;5884;43.618;1.438;2023-04-03T14:16:48;5.27;;;2.17;;
11655;SDS011;5884;43.618;1.438;2023-04-03T14:19:21;4.37;;;1.90;;
11655;SDS011;5884;43.618;1.438;2023-04-03T14:21:50;4.13;;;2.00;;
11655;SDS011;5884;43.618;1.438;2023-04-03T14:24:19;5.67;;;1.77;;
11655;SDS011;5884;43.618;1.438;2023-04-03T14:26:47;3.40;;;1.80;;
11655;SDS011;5884;43.618;1.438;2023-04-03T14:29:15;5.23;;;2.80;;
11655;SDS011;5884;43.618;1.438;2023-04-03T14:31:43;5.17;;;2.80;;
11655;SDS011;5884;43.618;1.438;2023-04-03T14:34:14;6.50;;;2.40;;
11655;SDS011;5884;43.618;1.438;2023-04-03T14:36:43;5.10;;;2.40;;
11655;SDS011;5884;43.618;1.438;2023-04-03T14:39:15;6.13;;;2.20;;
11655;SDS011;5884;43.618;1.438;2023-04-03T14:41:45;4.63;;;2.00;;
11655;SDS011;5884;43.618;1.438;2023-04-03T14:44:13;4.43;;;2.00;;
11655;SDS011;5884;43.618;1.438;2023-04-03T14:46:41;4.00;;;2.43;;
11655;SDS011;5884;43.618;1.438;2023-04-03T14:49:12;4.87;;;2.20;;
11655;SDS011;5884;43.618;1.438;2023-04-03T14:51:45;6.37;;;2.63;;
11655;SDS011;5884;43.618;1.438;2023-04-03T14:54:14;7.13;;;2.30;;
11655;SDS011;5884;43.618;1.438;2023-04-03T14:56:50;3.27;;;2.10;;
11655;SDS011;5884;43.618;1.438;2023-04-03T14:59:17;3.83;;;2.30;;
11655;SDS011;5884;43.618;1.438;2023-04-03T15:01:46;4.30;;;2.10;;
11655;SDS011;5884;43.618;1.438;2023-04-03T15:04:14;4.37;;;2.23;;
11655;SDS011;5884;43.618;1.438;2023-04-03T15:06:45;5.43;;;2.17;;
11655;SDS011;5884;43.618;1.438;2023-04-03T15:09:18;3.73;;;1.70;;
11655;SDS011;5884;43.618;1.438;2023-04-03T15:11:48;3.67;;;2.10;;
11655;SDS011;5884;43.618;1.438;2023-04-03T15:14:15;3.97;;;1.80;;
11655;SDS011;5884;43.618;1.438;2023-04-03T15:16:43;3.97;;;2.00;;
11655;SDS011;5884;43.618;1.438;2023-04-03T15:19:10;5.70;;;2.10;;
11655;SDS011;5884;43.618;1.438;2023-04-03T15:21:39;4.77;;;2.10;;
11655;SDS011;5884;43.618;1.438;2023-04-03T15:24:06;4.73;;;1.83;;
11655;SDS011;5884;43.618;1.438;2023-04-03T15:26:35;4.10;;;1.97;;
11655;SDS011;5884;43.618;1.438;2023-04-03T15:29:03;3.63;;;1.60;;
11655;SDS011;5884;43.618;1.438;2023-04-03T15:31:31;3.90;;;1.77;;
11655;SDS011;5884;43.618;1.438;2023-04-03T15:33:59;5.37;;;2.10;;
11655;SDS011;5884;43.618;1.438;2023-04-03T15:36:26;3.00;;;1.80;;
11655;SDS011;5884;43.618;1.438;2023-04-03T15:38:55;4.17;;;2.00;;
11655;SDS011;5884;43.618;1.438;2023-04-03T15:41:22;8.87;;;1.90;;
11655;SDS011;5884;43.618;1.438;2023-04-03T15:43:49;6.43;;;1.97;;
11655;SDS011;5884;43.618;1.438;2023-04-03T15:46:16;5.70;;;1.87;;
11655;SDS011;5884;43.618;1.438;2023-04-03T15:48:44;3.97;;;1.77;;
11655;SDS011;5884;43.618;1.438;2023-04-03T15:51:11;3.23;;;1.90;;
11655;SDS011;5884;43.618;1.438;2023-04-03T15:53:38;3.80;;;1.80;;
11655;SDS011;5884;43.618;1.438;2023-04-03T15:56:07;2.40;;;1.57;;
11655;SDS011;5884;43.618;1.438;2023-04-03T15:58:34;3.90;;;1.70;;
11655;SDS011;5884;43.618;1.438;2023-04-03T16:01:02;3.80;;;1.90;;
11655;SDS011;5884;43.618;1.438;2023-04-03T16:03:29;2.83;;;1.70;;
11655;SDS011;5884;43.618;1.438;2023-04-03T16:05:57;4.20;;;2.10;;
11655;SDS011;5884;43.618;1.438;2023-04-03T16:08:24;4.03;;;1.73;;
11655;SDS011;5884;43.618;1.438;2023-04-03T16:10:51;2.77;;;1.60;;
11655;SDS011;5884;43.618;1.438;2023-04-03T16:13:20;3.93;;;1.90;;
11655;SDS011;5884;43.618;1.438;2023-04-03T16:15:47;2.87;;;1.70;;
11655;SDS011;5884;43.618;1.438;2023-04-03T16:18:14;3.10;;;1.60;;
11655;SDS011;5884;43.618;1.438;2023-04-03T16:20:43;3.70;;;1.73;;
11655;SDS011;5884;43.618;1.438;2023-04-03T16:23:11;3.53;;;2.17;;
11655;SDS011;5884;43.618;1.438;2023-04-03T16:25:39;4.73;;;1.93;;
11655;SDS011;5884;43.618;1.438;2023-04-03T16:28:10;3.73;;;1.87;;
11655;SDS011;5884;43.618;1.438;2023-04-03T16:30:40;4.63;;;1.70;;
11655;SDS011;5884;43.618;1.438;2023-04-03T16:33:08;4.00;;;1.87;;
11655;SDS011;5884;43.618;1.438;2023-04-03T16:35:36;3.17;;;1.87;;
11655;SDS011;5884;43.618;1.438;2023-04-03T16:38:04;5.20;;;2.10;;
11655;SDS011;5884;43.618;1.438;2023-04-03T16:40:31;6.77;;;3.80;;
11655;SDS011;5884;43.618;1.438;2023-04-03T16:42:59;16.13;;;6.80;;
11655;SDS011;5884;43.618;1.438;2023-04-03T16:45:27;4.80;;;2.47;;
11655;SDS011;5884;43.618;1.438;2023-04-03T16:47:56;4.67;;;1.87;;
11655;SDS011;5884;43.618;1.438;2023-04-03T16:50:23;3.07;;;1.90;;
11655;SDS011;5884;43.618;1.438;2023-04-03T16:52:51;3.00;;;1.80;;
11655;SDS011;5884;43.618;1.438;2023-04-03T16:55:18;2.83;;;1.70;;
11655;SDS011;5884;43.618;1.438;2023-04-03T16:57:45;4.97;;;2.40;;
11655;SDS011;5884;43.618;1.438;2023-04-03T17:00:13;4.00;;;1.83;;
11655;SDS011;5884;43.618;1.438;2023-04-03T17:02:41;5.33;;;2.00;;
11655;SDS011;5884;43.618;1.438;2023-04-03T17:05:10;3.63;;;2.33;;
11655;SDS011;5884;43.618;1.438;2023-04-03T17:07:37;4.57;;;2.17;;
11655;SDS011;5884;43.618;1.438;2023-04-03T17:10:05;4.23;;;2.20;;
11655;SDS011;5884;43.618;1.438;2023-04-03T17:12:34;5.50;;;2.20;;
11655;SDS011;5884;43.618;1.438;2023-04-03T17:15:01;4.03;;;2.03;;
11655;SDS011;5884;43.618;1.438;2023-04-03T17:17:28;5.77;;;3.40;;
11655;SDS011;5884;43.618;1.438;2023-04-03T17:19:56;4.13;;;2.50;;
11655;SDS011;5884;43.618;1.438;2023-04-03T17:22:26;4.50;;;2.00;;
11655;SDS011;5884;43.618;1.438;2023-04-03T17:24:54;2.80;;;1.73;;
11655;SDS011;5884;43.618;1.438;2023-04-03T17:27:21;4.20;;;1.60;;
11655;SDS011;5884;43.618;1.438;2023-04-03T17:29:49;2.93;;;1.50;;
11655;SDS011;5884;43.618;1.438;2023-04-03T17:32:16;2.93;;;1.60;;
11655;SDS011;5884;43.618;1.438;2023-04-03T17:34:45;3.23;;;2.43;;
11655;SDS011;5884;43.618;1.438;2023-04-03T17:37:12;12.10;;;1.93;;
11655;SDS011;5884;43.618;1.438;2023-04-03T17:39:41;2.87;;;1.67;;
11655;SDS011;5884;43.618;1.438;2023-04-03T17:42:08;3.50;;;1.90;;
11655;SDS011;5884;43.618;1.438;2023-04-03T17:44:35;3.30;;;1.90;;
11655;SDS011;5884;43.618;1.438;2023-04-03T17:47:02;5.03;;;2.23;;
11655;SDS011;5884;43.618;1.438;2023-04-03T17:49:30;3.70;;;1.90;;
11655;SDS011;5884;43.618;1.438;2023-04-03T17:51:57;3.17;;;2.00;;
11655;SDS011;5884;43.618;1.438;2023-04-03T17:54:24;4.93;;;2.00;;
11655;SDS011;5884;43.618;1.438;2023-04-03T17:56:53;4.63;;;2.10;;
11655;SDS011;5884;43.618;1.438;2023-04-03T17:59:20;5.70;;;2.17;;
11655;SDS011;5884;43.618;1.438;2023-04-03T18:01:48;5.23;;;2.67;;
11655;SDS011;5884;43.618;1.438;2023-04-03T18:04:16;6.23;;;3.87;;
11655;SDS011;5884;43.618;1.438;2023-04-03T18:06:44;5.70;;;2.90;;
11655;SDS011;5884;43.618;1.438;2023-04-03T18:09:15;3.17;;;2.00;;
11655;SDS011;5884;43.618;1.438;2023-04-03T18:11:47;4.57;;;2.23;;
11655;SDS011;5884;43.618;1.438;2023-04-03T18:14:16;4.70;;;2.50;;
11655;SDS011;5884;43.618;1.438;2023-04-03T18:16:48;3.13;;;2.17;;
11655;SDS011;5884;43.618;1.438;2023-04-03T18:19:16;5.93;;;2.37;;
11655;SDS011;5884;43.618;1.438;2023-04-03T18:21:43;3.53;;;2.20;;
11655;SDS011;5884;43.618;1.438;2023-04-03T18:24:12;3.07;;;2.50;;
11655;SDS011;5884;43.618;1.438;2023-04-03T18:26:41;4.90;;;2.60;;
11655;SDS011;5884;43.618;1.438;2023-04-03T18:29:11;10.87;;;6.60;;
11655;SDS011;5884;43.618;1.438;2023-04-03T18:31:42;6.27;;;4.83;;
11655;SDS011;5884;43.618;1.438;2023-04-03T18:34:14;9.30;;;4.07;;
11655;SDS011;5884;43.618;1.438;2023-04-03T18:36:41;14.37;;;10.40;;
11655;SDS011;5884;43.618;1.438;2023-04-03T18:39:08;11.53;;;8.10;;
11655;SDS011;5884;43.618;1.438;2023-04-03T18:41:36;9.40;;;7.07;;
11655;SDS011;5884;43.618;1.438;2023-04-03T18:44:04;18.67;;;12.33;;
11655;SDS011;5884;43.618;1.438;2023-04-03T18:46:34;28.17;;;18.37;;
11655;SDS011;5884;43.618;1.438;2023-04-03T18:49:04;21.53;;;13.03;;
11655;SDS011;5884;43.618;1.438;2023-04-03T18:51:32;7.43;;;4.90;;
11655;SDS011;5884;43.618;1.438;2023-04-03T18:53:59;7.80;;;4.00;;
11655;SDS011;5884;43.618;1.438;2023-04-03T18:56:26;8.63;;;3.53;;
11655;SDS011;5884;43.618;1.438;2023-04-03T18:58:53;3.77;;;2.87;;
11655;SDS011;5884;43.618;1.438;2023-04-03T19:01:21;4.70;;;2.93;;
11655;SDS011;5884;43.618;1.438;2023-04-03T19:03:48;5.13;;;3.13;;
11655;SDS011;5884;43.618;1.438;2023-04-03T19:06:17;7.17;;;3.43;;
11655;SDS011;5884;43.618;1.438;2023-04-03T19:08:44;4.07;;;2.73;;
11655;SDS011;5884;43.618;1.438;2023-04-03T19:11:12;5.23;;;3.10;;
11655;SDS011;5884;43.618;1.438;2023-04-03T19:13:39;4.87;;;3.60;;
11655;SDS011;5884;43.618;1.438;2023-04-03T19:16:06;5.53;;;3.67;;
11655;SDS011;5884;43.618;1.438;2023-04-03T19:18:34;7.00;;;3.87;;
11655;SDS011;5884;43.618;1.438;2023-04-03T19:21:01;4.63;;;3.30;;
11655;SDS011;5884;43.618;1.438;2023-04-03T19:23:30;5.40;;;3.90;;
11655;SDS011;5884;43.618;1.438;2023-04-03T19:25:57;6.63;;;3.53;;
11655;SDS011;5884;43.618;1.438;2023-04-03T19:28:26;8.37;;;3.87;;
11655;SDS011;5884;43.618;1.438;2023-04-03T19:30:53;6.60;;;3.90;;
11655;SDS011;5884;43.618;1.438;2023-04-03T19:33:22;6.70;;;4.40;;
11655;SDS011;5884;43.618;1.438;2023-04-03T19:35:49;7.43;;;5.03;;
11655;SDS011;5884;43.618;1.438;2023-04-03T19:38:17;5.87;;;3.80;;
11655;SDS011;5884;43.618;1.438;2023-04-03T19:40:46;7.83;;;3.67;;
11655;SDS011;5884;43.618;1.438;2023-04-03T19:43:13;3.77;;;3.13;;
11655;SDS011;5884;43.618;1.438;2023-04-03T19:45:42;8.57;;;4.07;;
11655;SDS011;5884;43.618;1.438;2023-04-03T19:48:11;5.90;;;3.40;;
11655;SDS011;5884;43.618;1.438;2023-04-03T19:50:38;8.10;;;3.30;;
11655;SDS011;5884;43.618;1.438;2023-04-03T19:53:06;4.50;;;3.40;;
11655;SDS011;5884;43.618;1.438;2023-04-03T19:55:34;8.30;;;4.60;;
11655;SDS011;5884;43.618;1.438;2023-04-03T19:58:03;5.97;;;3.80;;
11655;SDS011;5884;43.618;1.438;2023-04-03T20:00:31;5.90;;;3.30;;
11655;SDS011;5884;43.618;1.438;2023-04-03T20:02:58;6.93;;;4.07;;
11655;SDS011;5884;43.618;1.438;2023-04-03T20:05:25;7.27;;;3.43;;
11655;SDS011;5884;43.618;1.438;2023-04-03T20:07:53;7.57;;;3.70;;
11655;SDS011;5884;43.618;1.438;2023-04-03T20:10:21;6.63;;;3.77;;
11655;SDS011;5884;43.618;1.438;2023-04-03T20:12:49;5.97;;;3.67;;
11655;SDS011;5884;43.618;1.438;2023-04-03T20:15:18;6.77;;;3.73;;
11655;SDS011;5884;43.618;1.438;2023-04-03T20:17:45;5.53;;;3.00;;
11655;SDS011;5884;43.618;1.438;2023-04-03T20:20:13;7.60;;;4.53;;
11655;SDS011;5884;43.618;1.438;2023-04-03T20:22:40;5.27;;;3.73;;
11655;SDS011;5884;43.618;1.438;2023-04-03T20:25:09;5.60;;;3.30;;
11655;SDS011;5884;43.618;1.438;2023-04-03T20:27:38;9.63;;;4.63;;
11655;SDS011;5884;43.618;1.438;2023-04-03T20:30:06;11.70;;;4.00;;
11655;SDS011;5884;43.618;1.438;2023-04-03T20:32:38;6.53;;;3.80;;
11655;SDS011;5884;43.618;1.438;2023-04-03T20:35:06;5.83;;;3.30;;